createdAt,value
2019-01-08T00:02:19.420Z,39.17
2019-01-08T00:07:25.309Z,45.87
2019-01-08T00:12:31.330Z,41.40
2019-01-08T00:17:37.427Z,44.53
2019-01-08T00:22:43.830Z,44.43
2019-01-08T00:27:50.098Z,44.93
2019-01-08T00:32:56.088Z,46.33
2019-01-08T00:38:02.076Z,39.97
2019-01-08T00:43:08.402Z,47.83
2019-01-08T00:48:14.704Z,43.17
2019-01-08T00:53:20.446Z,49.90
2019-01-08T00:58:26.448Z,46.37
2019-01-08T01:03:32.732Z,48.53
2019-01-08T01:08:38.788Z,47.07
2019-01-08T01:13:45.084Z,47.97
2019-01-08T01:18:51.909Z,45.80
2019-01-08T01:23:58.261Z,50.17
2019-01-08T01:29:04.314Z,44.20
2019-01-08T01:34:10.702Z,45.12
2019-01-08T01:39:17.405Z,45.78
2019-01-08T01:44:23.679Z,44.75
2019-01-08T01:49:29.877Z,49.67
2019-01-08T01:54:36.360Z,48.87
2019-01-08T01:59:42.563Z,46.30
2019-01-08T02:04:49.911Z,45.83
2019-01-08T02:09:56.020Z,41.83
2019-01-08T02:15:01.984Z,45.00
2019-01-08T02:20:08.365Z,42.33
2019-01-08T02:25:14.630Z,40.75
2019-01-08T02:30:20.722Z,32.13
2019-01-08T02:35:26.649Z,37.70
2019-01-08T02:40:32.654Z,38.60
2019-01-08T02:45:39.068Z,38.93
2019-01-08T02:50:45.444Z,35.10
2019-01-08T02:55:51.723Z,37.93
2019-01-08T03:00:57.907Z,34.43
2019-01-08T03:06:04.048Z,31.35
2019-01-08T03:11:10.018Z,31.07
2019-01-08T03:16:16.117Z,32.08
2019-01-08T03:21:21.965Z,28.00
2019-01-08T03:26:28.068Z,30.40
2019-01-08T03:31:34.609Z,26.70
2019-01-08T03:36:40.807Z,25.90
2019-01-08T03:41:46.843Z,23.87
2019-01-08T03:46:53.595Z,23.00
2019-01-08T03:51:59.643Z,26.17
2019-01-08T03:57:06.142Z,21.17
2019-01-08T04:02:12.102Z,23.60
2019-01-08T04:07:18.420Z,20.23
2019-01-08T04:12:25.030Z,21.52
2019-01-08T04:17:31.168Z,21.73
2019-01-08T04:22:37.666Z,19.17
2019-01-08T04:27:44.055Z,23.00
2019-01-08T04:32:50.322Z,19.10
2019-01-08T04:37:56.502Z,18.67
2019-01-08T04:43:02.342Z,14.93
2019-01-08T04:48:08.440Z,15.20
2019-01-08T04:53:15.026Z,17.90
2019-01-08T04:58:21.424Z,14.40
2019-01-08T05:03:28.601Z,15.90
2019-01-08T05:08:34.667Z,15.23
2019-01-08T05:13:40.590Z,12.63
2019-01-08T05:18:46.850Z,12.77
2019-01-08T05:23:53.545Z,17.53
2019-01-08T05:28:59.819Z,9.10
2019-01-08T05:34:06.525Z,10.58
2019-01-08T05:39:12.898Z,9.03
2019-01-08T05:44:19.159Z,8.80
2019-01-08T05:49:25.552Z,7.27
2019-01-08T05:54:31.940Z,9.57
2019-01-08T05:59:38.516Z,11.10
2019-01-08T06:04:45.430Z,8.50
2019-01-08T06:09:51.907Z,7.17
2019-01-08T06:14:58.218Z,11.70
2019-01-08T06:20:05.274Z,17.50
2019-01-08T06:25:11.542Z,13.47
2019-01-08T06:30:24.739Z,10.80
2019-01-08T06:35:25.978Z,14.37
2019-01-08T06:40:32.446Z,13.13
2019-01-08T06:45:38.941Z,9.87
2019-01-08T06:50:45.093Z,8.87
2019-01-08T06:55:51.599Z,8.70
2019-01-08T07:00:57.962Z,9.57
2019-01-08T07:06:04.464Z,8.90
2019-01-08T07:11:10.974Z,12.03
2019-01-08T07:16:17.174Z,12.07
2019-01-08T07:21:23.514Z,12.18
2019-01-08T07:26:29.789Z,13.73
2019-01-08T07:31:36.291Z,17.40
2019-01-08T07:36:42.866Z,13.17
2019-01-08T07:41:49.569Z,14.10
2019-01-08T07:46:56.170Z,14.83
2019-01-08T07:52:02.318Z,17.07
2019-01-08T07:57:08.545Z,22.77
2019-01-08T08:02:15.193Z,23.30
2019-01-08T08:07:21.607Z,20.80
2019-01-08T08:12:27.635Z,19.90
2019-01-08T08:17:33.923Z,24.40
2019-01-08T08:22:40.431Z,30.00
2019-01-08T08:27:47.001Z,25.73
2019-01-08T08:32:53.491Z,21.80
2019-01-08T08:38:00.007Z,22.80
2019-01-08T08:43:06.780Z,27.10
2019-01-08T08:48:12.830Z,26.93
2019-01-08T08:53:19.022Z,20.75
2019-01-08T08:58:24.958Z,33.73
2019-01-08T09:03:31.062Z,37.97
2019-01-08T09:08:37.558Z,31.27
2019-01-08T09:13:43.998Z,24.23
2019-01-08T09:18:49.990Z,26.37
2019-01-08T09:23:56.286Z,31.30
2019-01-08T09:29:02.819Z,32.83
2019-01-08T09:34:09.252Z,31.93
2019-01-08T09:39:15.342Z,29.63
2019-01-08T09:44:21.428Z,28.52
2019-01-08T09:49:27.777Z,31.10
2019-01-08T09:54:33.435Z,32.60
2019-01-08T09:59:39.512Z,31.20
2019-01-08T10:04:47.351Z,38.37
2019-01-08T10:09:53.247Z,40.53
2019-01-08T10:15:00.747Z,29.23
2019-01-08T10:20:09.359Z,51.67
2019-01-08T10:25:15.639Z,35.83
2019-01-08T10:30:21.595Z,193.63
2019-01-08T10:35:27.693Z,51.18
2019-01-08T10:40:34.409Z,43.20
2019-01-08T10:45:41.268Z,62.23
2019-01-08T10:50:47.773Z,32.85
2019-01-08T10:55:54.058Z,52.83
2019-01-08T11:01:00.540Z,47.33
2019-01-08T11:06:07.168Z,38.97
2019-01-08T11:11:13.278Z,91.67
2019-01-08T11:16:19.579Z,143.17
2019-01-08T11:21:25.715Z,45.47
2019-01-08T11:26:31.832Z,28.13
2019-01-08T11:31:37.950Z,44.77
2019-01-08T11:36:44.288Z,37.67
2019-01-08T11:41:50.438Z,43.00
2019-01-08T11:46:56.304Z,31.53
2019-01-08T11:52:02.623Z,28.97
2019-01-08T11:57:08.898Z,27.20
2019-01-08T12:02:15.645Z,29.57
2019-01-08T12:07:22.074Z,28.37
2019-01-08T12:12:28.563Z,28.73
2019-01-08T12:17:34.895Z,29.73
2019-01-08T12:22:41.244Z,29.43
2019-01-08T12:27:47.609Z,26.03
2019-01-08T12:32:53.829Z,22.20
2019-01-08T12:38:00.979Z,35.93
2019-01-08T12:43:07.369Z,25.73
2019-01-08T12:48:13.656Z,24.85
2019-01-08T12:53:19.613Z,26.47
2019-01-08T12:58:25.797Z,32.07
2019-01-08T13:03:31.776Z,30.57
2019-01-08T13:08:37.719Z,33.53
2019-01-08T13:13:44.024Z,27.53
2019-01-08T13:18:50.509Z,31.40
2019-01-08T13:23:56.435Z,120.87
2019-01-08T13:29:02.947Z,29.90
2019-01-08T13:34:09.551Z,53.30
2019-01-08T13:39:16.242Z,40.97
2019-01-08T13:44:23.035Z,41.95
2019-01-08T13:49:29.414Z,37.40
2019-01-08T13:54:35.702Z,39.50
2019-01-08T13:59:42.259Z,42.13
2019-01-08T14:04:48.565Z,99.37
2019-01-08T14:09:54.611Z,37.67
2019-01-08T14:15:01.013Z,64.07
2019-01-08T14:20:08.524Z,49.00
2019-01-08T14:25:14.737Z,39.05
2019-01-08T14:30:21.090Z,37.83
2019-01-08T14:35:27.142Z,52.17
2019-01-08T14:40:33.023Z,78.33
2019-01-08T14:45:39.397Z,45.17
2019-01-08T14:50:46.024Z,103.40
2019-01-08T14:55:52.350Z,141.73
2019-01-08T15:00:58.676Z,94.20
2019-01-08T15:06:04.925Z,48.70
2019-01-08T15:11:11.414Z,68.03
2019-01-08T15:16:18.031Z,71.42
2019-01-08T15:21:24.504Z,65.60
2019-01-08T15:26:30.789Z,80.63
2019-01-08T15:31:36.949Z,59.87
2019-01-08T15:36:43.162Z,69.23
2019-01-08T15:41:50.047Z,54.97
2019-01-08T15:46:56.534Z,63.10
2019-01-08T15:52:02.917Z,71.80
2019-01-08T15:57:09.385Z,92.70
2019-01-08T16:02:15.661Z,94.03
2019-01-08T16:07:21.937Z,80.63
2019-01-08T16:12:28.345Z,73.00
2019-01-08T16:17:34.707Z,77.05
2019-01-08T16:22:41.288Z,94.33
2019-01-08T16:27:47.690Z,97.80
2019-01-08T16:32:53.980Z,85.47
2019-01-08T16:37:59.856Z,103.45
2019-01-08T16:43:06.338Z,94.42
2019-01-08T16:48:12.720Z,86.93
2019-01-08T16:53:19.308Z,111.60
2019-01-08T16:58:25.350Z,96.20
2019-01-08T17:03:31.341Z,97.20
2019-01-08T17:08:37.532Z,93.27
2019-01-08T17:13:44.275Z,103.13
2019-01-08T17:18:50.772Z,83.63
2019-01-08T17:23:56.955Z,96.80
2019-01-08T17:29:03.197Z,238.73
2019-01-08T17:34:09.744Z,120.83
2019-01-08T17:39:15.727Z,110.92
2019-01-08T17:44:21.785Z,99.65
2019-01-08T17:49:28.136Z,98.67
2019-01-08T17:54:34.189Z,85.00
2019-01-08T17:59:40.382Z,95.97
2019-01-08T18:04:46.717Z,97.53
2019-01-08T18:09:53.215Z,84.33
2019-01-08T18:14:59.756Z,192.07
2019-01-08T18:20:07.395Z,92.50
2019-01-08T18:25:13.773Z,90.40
2019-01-08T18:30:20.102Z,82.53
2019-01-08T18:35:26.542Z,85.17
2019-01-08T18:40:32.803Z,107.97
2019-01-08T18:46:46.244Z,65.03
2019-01-08T18:51:52.468Z,69.93
2019-01-08T18:56:58.600Z,82.60
2019-01-08T19:02:05.901Z,73.78
2019-01-08T19:04:50.408Z,75.25
2019-01-08T19:05:26.272Z,68.00
2019-01-08T19:06:02.206Z,64.97
2019-01-08T19:06:38.599Z,71.30
2019-01-08T19:07:15.000Z,65.95
2019-01-08T19:07:50.836Z,71.80
2019-01-08T19:08:34.157Z,65.23
2019-01-08T19:09:23.296Z,65.72
2019-01-08T19:10:13.132Z,62.70
2019-01-08T19:10:49.301Z,59.55
2019-01-08T19:11:25.514Z,58.23
2019-01-08T19:12:01.616Z,53.65
2019-01-08T19:12:37.739Z,57.63
2019-01-08T19:13:13.423Z,52.85
2019-01-08T19:13:49.353Z,55.70
2019-01-08T19:14:30.447Z,52.03
2019-01-08T19:15:06.795Z,48.68
2019-01-08T19:15:42.815Z,45.40
2019-01-08T19:16:18.982Z,45.55
2019-01-08T19:16:55.135Z,44.20
2019-01-08T19:17:31.323Z,46.03
2019-01-08T19:18:07.778Z,43.15
2019-01-08T19:18:43.868Z,39.73
2019-01-08T19:19:19.971Z,43.63
2019-01-08T19:19:56.067Z,49.18
2019-01-08T19:20:31.904Z,46.57
2019-01-08T19:21:07.915Z,45.55
2019-01-08T19:26:29.268Z,51.13
2019-01-08T19:31:35.623Z,49.37
2019-01-08T19:36:42.021Z,53.63
2019-01-08T19:41:48.367Z,63.50
2019-01-08T19:46:54.871Z,47.27
2019-01-08T19:52:01.351Z,87.90
2019-01-08T19:57:07.735Z,58.47
2019-01-08T20:02:13.998Z,53.48
2019-01-08T20:07:19.886Z,55.38
2019-01-08T20:12:26.152Z,86.57
2019-01-08T20:17:32.123Z,65.13
2019-01-08T20:22:38.328Z,68.67
2019-01-08T20:27:44.583Z,57.37
2019-01-08T20:32:51.904Z,65.17
2019-01-08T20:37:58.284Z,61.97
2019-01-08T20:43:04.779Z,72.87
2019-01-08T20:48:11.250Z,79.93
2019-01-08T20:53:17.727Z,57.73
2019-01-08T20:58:28.653Z,54.10
2019-01-08T21:03:31.765Z,58.20
2019-01-08T21:08:38.011Z,55.60
2019-01-08T21:13:44.057Z,88.83
2019-01-08T21:18:50.079Z,76.40
2019-01-08T21:23:56.026Z,60.03
2019-01-08T21:29:03.919Z,61.60
2019-01-08T21:34:10.149Z,69.53
2019-01-08T21:39:16.848Z,59.73
2019-01-08T21:44:23.228Z,69.53
2019-01-08T21:49:29.689Z,60.37
2019-01-08T21:54:35.964Z,62.63
2019-01-08T21:59:42.364Z,64.67
2019-01-08T22:04:53.276Z,62.90
2019-01-08T22:09:57.178Z,62.70
2019-01-08T22:15:03.866Z,62.50
2019-01-08T22:20:11.690Z,55.33
2019-01-08T22:25:17.835Z,58.60
2019-01-08T22:30:24.147Z,65.30
2019-01-08T22:35:30.912Z,67.67
2019-01-08T22:40:37.927Z,65.57
2019-01-08T22:45:44.307Z,59.55
2019-01-08T22:50:51.841Z,61.90
2019-01-08T22:55:57.865Z,61.98
2019-01-08T23:01:08.381Z,56.87
2019-01-08T23:06:14.861Z,73.90
2019-01-08T23:11:21.166Z,61.75
2019-01-08T23:16:27.927Z,106.10
2019-01-08T23:21:34.077Z,68.57
2019-01-08T23:26:40.414Z,64.40
2019-01-08T23:31:46.898Z,74.27
2019-01-08T23:36:53.230Z,67.87
2019-01-08T23:41:59.761Z,76.43
2019-01-08T23:47:07.134Z,59.40
2019-01-08T23:52:14.540Z,68.00
2019-01-08T23:57:21.122Z,66.65
